sensor_id;sensor_type;location;lat;lon;timestamp;pressure;altitude;pressure_sealevel;temperature;humidity
76637;BME280;65532;52.124;5.480;2023-11-21T00:01:04;101087.22;;;5.81;72.65
76637;BME280;65532;52.124;5.480;2023-11-21T00:03:31;101084.94;;;5.78;72.33
76637;BME280;65532;52.124;5.480;2023-11-21T00:05:58;101087.81;;;5.76;71.83
76637;BME280;65532;52.124;5.480;2023-11-21T00:08:24;101093.38;;;5.75;71.27
76637;BME280;65532;52.124;5.480;2023-11-21T00:10:51;101096.06;;;5.75;70.26
76637;BME280;65532;52.124;5.480;2023-11-21T00:13:18;101091.34;;;5.77;68.45
76637;BME280;65532;52.124;5.480;2023-11-21T00:15:44;101096.72;;;5.77;67.50
76637;BME280;65532;52.124;5.480;2023-11-21T00:18:11;101100.03;;;5.79;66.18
76637;BME280;65532;52.124;5.480;2023-11-21T00:20:37;101097.16;;;5.80;63.91
76637;BME280;65532;52.124;5.480;2023-11-21T00:23:04;101096.13;;;5.81;62.69
76637;BME280;65532;52.124;5.480;2023-11-21T00:25:30;101098.81;;;5.81;60.77
76637;BME280;65532;52.124;5.480;2023-11-21T00:27:58;101094.66;;;5.79;59.98
76637;BME280;65532;52.124;5.480;2023-11-21T00:30:24;101102.09;;;5.77;59.30
76637;BME280;65532;52.124;5.480;2023-11-21T00:32:51;101106.00;;;5.74;58.17
76637;BME280;65532;52.124;5.480;2023-11-21T00:35:18;101108.88;;;5.72;57.24
76637;BME280;65532;52.124;5.480;2023-11-21T00:37:45;101103.50;;;5.72;56.23
76637;BME280;65532;52.124;5.480;2023-11-21T00:40:12;101105.56;;;5.70;55.60
76637;BME280;65532;52.124;5.480;2023-11-21T00:42:39;101107.41;;;5.70;55.48
76637;BME280;65532;52.124;5.480;2023-11-21T00:45:06;101108.25;;;5.70;55.21
76637;BME280;65532;52.124;5.480;2023-11-21T00:47:33;101115.66;;;5.68;55.05
76637;BME280;65532;52.124;5.480;2023-11-21T00:50:00;101108.59;;;5.67;54.56
76637;BME280;65532;52.124;5.480;2023-11-21T00:52:27;101108.78;;;5.66;53.83
76637;BME280;65532;52.124;5.480;2023-11-21T00:54:53;101116.03;;;5.65;52.97
76637;BME280;65532;52.124;5.480;2023-11-21T00:57:20;101116.03;;;5.65;51.75
76637;BME280;65532;52.124;5.480;2023-11-21T00:59:46;101118.06;;;5.63;50.97
76637;BME280;65532;52.124;5.480;2023-11-21T01:02:13;101132.53;;;5.62;50.53
76637;BME280;65532;52.124;5.480;2023-11-21T01:04:39;101137.91;;;5.62;50.22
76637;BME280;65532;52.124;5.480;2023-11-21T01:07:06;101135.41;;;5.61;49.51
76637;BME280;65532;52.124;5.480;2023-11-21T01:09:33;101140.78;;;5.61;49.17
76637;BME280;65532;52.124;5.480;2023-11-21T01:11:59;101146.16;;;5.61;48.14
76637;BME280;65532;52.124;5.480;2023-11-21T01:14:27;101148.63;;;5.62;47.58
76637;BME280;65532;52.124;5.480;2023-11-21T01:16:53;101141.22;;;5.64;46.40
76637;BME280;65532;52.124;5.480;2023-11-21T01:19:20;101147.88;;;5.68;45.24
76637;BME280;65532;52.124;5.480;2023-11-21T01:21:47;101142.53;;;5.68;44.30
76637;BME280;65532;52.124;5.480;2023-11-21T01:24:13;101145.22;;;5.68;43.71
76637;BME280;65532;52.124;5.480;2023-11-21T01:26:40;101148.72;;;5.69;43.04
76637;BME280;65532;52.124;5.480;2023-11-21T01:29:06;101137.16;;;5.68;41.69
76637;BME280;65532;52.124;5.480;2023-11-21T01:31:33;101142.13;;;5.71;39.63
76637;BME280;65532;52.124;5.480;2023-11-21T01:34:00;101142.56;;;5.75;38.35
76637;BME280;65532;52.124;5.480;2023-11-21T01:36:31;101148.38;;;5.79;36.88
76637;BME280;65532;52.124;5.480;2023-11-21T01:39:01;101143.44;;;5.82;35.65
76637;BME280;65532;52.124;5.480;2023-11-21T01:41:34;101153.63;;;5.87;34.29
76637;BME280;65532;52.124;5.480;2023-11-21T01:44:01;101153.28;;;5.90;33.02
76637;BME280;65532;52.124;5.480;2023-11-21T01:46:28;101148.53;;;5.92;31.53
76637;BME280;65532;52.124;5.480;2023-11-21T01:48:55;101156.00;;;5.96;30.14
76637;BME280;65532;52.124;5.480;2023-11-21T01:51:22;101153.97;;;5.98;29.08
76637;BME280;65532;52.124;5.480;2023-11-21T01:53:49;101154.44;;;6.02;27.68
76637;BME280;65532;52.124;5.480;2023-11-21T01:56:16;101157.75;;;6.04;26.34
76637;BME280;65532;52.124;5.480;2023-11-21T01:58:43;101161.06;;;6.06;27.85
76637;BME280;65532;52.124;5.480;2023-11-21T02:01:10;101161.72;;;6.08;27.10
76637;BME280;65532;52.124;5.480;2023-11-21T02:03:36;101162.97;;;6.12;25.33
76637;BME280;65532;52.124;5.480;2023-11-21T02:06:03;101157.41;;;6.14;24.64
76637;BME280;65532;52.124;5.480;2023-11-21T02:08:30;101168.81;;;6.16;23.02
76637;BME280;65532;52.124;5.480;2023-11-21T02:10:56;101174.63;;;6.19;21.91
76637;BME280;65532;52.124;5.480;2023-11-21T02:13:24;101193.06;;;6.22;20.43
76637;BME280;65532;52.124;5.480;2023-11-21T02:15:50;101193.50;;;6.26;18.45
76637;BME280;65532;52.124;5.480;2023-11-21T02:18:18;101192.91;;;6.30;17.06
76637;BME280;65532;52.124;5.480;2023-11-21T02:20:45;101196.06;;;6.34;15.90
76637;BME280;65532;52.124;5.480;2023-11-21T02:23:13;101204.56;;;6.38;15.48
76637;BME280;65532;52.124;5.480;2023-11-21T02:25:39;101197.94;;;6.40;14.07
76637;BME280;65532;52.124;5.480;2023-11-21T02:28:06;101204.78;;;6.43;12.96
76637;BME280;65532;52.124;5.480;2023-11-21T02:30:33;101194.66;;;6.45;12.64
76637;BME280;65532;52.124;5.480;2023-11-21T02:33:00;101196.31;;;6.46;12.20
76637;BME280;65532;52.124;5.480;2023-11-21T02:35:27;101199.69;;;6.48;11.37
76637;BME280;65532;52.124;5.480;2023-11-21T02:37:54;101207.34;;;6.51;10.52
76637;BME280;65532;52.124;5.480;2023-11-21T02:40:21;101198.25;;;6.52;9.77
76637;BME280;65532;52.124;5.480;2023-11-21T02:42:48;101193.72;;;6.52;9.39
76637;BME280;65532;52.124;5.480;2023-11-21T02:45:19;101200.34;;;6.56;8.04
76637;BME280;65532;52.124;5.480;2023-11-21T02:47:47;101198.28;;;6.58;7.19
76637;BME280;65532;52.124;5.480;2023-11-21T02:50:13;101198.09;;;6.60;7.11
76637;BME280;65532;52.124;5.480;2023-11-21T02:52:40;101197.06;;;6.61;6.72
76637;BME280;65532;52.124;5.480;2023-11-21T02:55:07;101195.03;;;6.63;6.21
76637;BME280;65532;52.124;5.480;2023-11-21T02:57:33;101191.94;;;6.66;5.68
76637;BME280;65532;52.124;5.480;2023-11-21T03:00:00;101197.94;;;6.68;5.50
76637;BME280;65532;52.124;5.480;2023-11-21T03:02:27;101195.25;;;6.68;5.09
76637;BME280;65532;52.124;5.480;2023-11-21T03:04:54;101196.72;;;6.71;4.05
76637;BME280;65532;52.124;5.480;2023-11-21T03:07:21;101205.03;;;6.76;3.72
76637;BME280;65532;52.124;5.480;2023-11-21T03:09:48;101202.13;;;6.77;4.04
76637;BME280;65532;52.124;5.480;2023-11-21T03:12:14;101205.50;;;6.79;4.32
76637;BME280;65532;52.124;5.480;2023-11-21T03:14:42;101208.81;;;6.81;5.41
76637;BME280;65532;52.124;5.480;2023-11-21T03:17:08;101203.44;;;6.81;5.95
76637;BME280;65532;52.124;5.480;2023-11-21T03:19:35;101205.09;;;6.82;6.54
76637;BME280;65532;52.124;5.480;2023-11-21T03:22:01;101198.88;;;6.82;6.30
76637;BME280;65532;52.124;5.480;2023-11-21T03:24:28;101210.06;;;6.85;5.78
76637;BME280;65532;52.124;5.480;2023-11-21T03:26:54;101206.34;;;6.86;5.81
76637;BME280;65532;52.124;5.480;2023-11-21T03:29:21;101210.69;;;6.87;6.76
76637;BME280;65532;52.124;5.480;2023-11-21T03:31:47;101213.38;;;6.87;7.06
76637;BME280;65532;52.124;5.480;2023-11-21T03:34:20;101206.34;;;6.86;7.67
76637;BME280;65532;52.124;5.480;2023-11-21T03:36:46;101206.34;;;6.86;8.29
76637;BME280;65532;52.124;5.480;2023-11-21T03:39:13;101209.03;;;6.86;9.73
76637;BME280;65532;52.124;5.480;2023-11-21T03:41:39;101215.44;;;6.85;9.17
76637;BME280;65532;52.124;5.480;2023-11-21T03:44:06;101212.75;;;6.85;9.80
76637;BME280;65532;52.124;5.480;2023-11-21T03:46:33;101206.34;;;6.86;9.38
76637;BME280;65532;52.124;5.480;2023-11-21T03:48:59;101217.13;;;6.86;9.48
76637;BME280;65532;52.124;5.480;2023-11-21T03:51:26;101215.88;;;6.89;8.93
76637;BME280;65532;52.124;5.480;2023-11-21T03:53:52;101213.00;;;6.90;8.35
76637;BME280;65532;52.124;5.480;2023-11-21T03:56:19;101228.72;;;6.94;8.30
76637;BME280;65532;52.124;5.480;2023-11-21T03:58:48;101227.34;;;6.98;7.76
76637;BME280;65532;52.124;5.480;2023-11-21T04:01:21;101236.25;;;6.98;7.83
76637;BME280;65532;52.124;5.480;2023-11-21T04:03:48;101232.13;;;7.02;7.57
76637;BME280;65532;52.124;5.480;2023-11-21T04:06:16;101228.38;;;7.03;7.75
76637;BME280;65532;52.124;5.480;2023-11-21T04:08:44;101230.88;;;7.05;7.72
76637;BME280;65532;52.124;5.480;2023-11-21T04:11:11;101237.72;;;7.07;7.24
76637;BME280;65532;52.124;5.480;2023-11-21T04:13:39;101238.56;;;7.08;6.35
76637;BME280;65532;52.124;5.480;2023-11-21T04:16:07;101247.09;;;7.11;5.84
76637;BME280;65532;52.124;5.480;2023-11-21T04:18:36;101253.94;;;7.14;6.20
76637;BME280;65532;52.124;5.480;2023-11-21T04:21:02;101257.06;;;7.17;6.29
76637;BME280;65532;52.124;5.480;2023-11-21T04:23:29;101261.00;;;7.21;6.50
76637;BME280;65532;52.124;5.480;2023-11-21T04:25:57;101259.13;;;7.22;6.83
76637;BME280;65532;52.124;5.480;2023-11-21T04:28:25;101261.63;;;7.24;7.03
76637;BME280;65532;52.124;5.480;2023-11-21T04:30:52;101269.50;;;7.25;7.37
76637;BME280;65532;52.124;5.480;2023-11-21T04:33:18;101268.69;;;7.25;7.34
76637;BME280;65532;52.124;5.480;2023-11-21T04:35:45;101269.50;;;7.25;7.34
76637;BME280;65532;52.124;5.480;2023-11-21T04:38:12;101265.97;;;7.25;8.05
76637;BME280;65532;52.124;5.480;2023-11-21T04:40:39;101275.56;;;7.27;6.92
76637;BME280;65532;52.124;5.480;2023-11-21T04:43:05;101283.44;;;7.29;7.15
76637;BME280;65532;52.124;5.480;2023-11-21T04:45:32;101286.97;;;7.29;7.54
76637;BME280;65532;52.124;5.480;2023-11-21T04:47:59;101288.63;;;7.30;7.53
76637;BME280;65532;52.124;5.480;2023-11-21T04:50:25;101291.09;;;7.32;7.22
76637;BME280;65532;52.124;5.480;2023-11-21T04:52:53;101295.25;;;7.34;7.68
76637;BME280;65532;52.124;5.480;2023-11-21T04:55:20;101288.22;;;7.33;7.68
76637;BME280;65532;52.124;5.480;2023-11-21T04:57:47;101290.72;;;7.35;7.82
76637;BME280;65532;52.124;5.480;2023-11-21T05:00:14;101285.31;;;7.35;7.80
76637;BME280;65532;52.124;5.480;2023-11-21T05:02:42;101285.31;;;7.35;7.54
76637;BME280;65532;52.124;5.480;2023-11-21T05:05:10;101284.47;;;7.34;7.71
76637;BME280;65532;52.124;5.480;2023-11-21T05:07:37;101304.38;;;7.33;7.89
76637;BME280;65532;52.124;5.480;2023-11-21T05:10:05;101302.31;;;7.35;5.38
76637;BME280;65532;52.124;5.480;2023-11-21T05:12:38;101305.22;;;7.40;5.24
76637;BME280;65532;52.124;5.480;2023-11-21T05:15:05;101308.59;;;7.42;5.14
76637;BME280;65532;52.124;5.480;2023-11-21T05:17:39;101314.41;;;7.46;4.40
76637;BME280;65532;52.124;5.480;2023-11-21T05:20:10;101309.84;;;7.46;4.19
76637;BME280;65532;52.124;5.480;2023-11-21T05:22:37;101321.03;;;7.50;3.61
76637;BME280;65532;52.124;5.480;2023-11-21T05:25:05;101318.16;;;7.51;3.20
76637;BME280;65532;52.124;5.480;2023-11-21T05:27:32;101327.69;;;7.54;2.50
76637;BME280;65532;52.124;5.480;2023-11-21T05:29:58;101317.75;;;7.55;2.12
76637;BME280;65532;52.124;5.480;2023-11-21T05:32:25;101312.97;;;7.57;0.83
76637;BME280;65532;52.124;5.480;2023-11-21T05:34:52;101322.75;;;7.58;1.28
76637;BME280;65532;52.124;5.480;2023-11-21T05:37:18;101330.63;;;7.59;0.87
76637;BME280;65532;52.124;5.480;2023-11-21T05:39:45;101331.47;;;7.60;0.00
76637;BME280;65532;52.124;5.480;2023-11-21T05:42:11;101332.09;;;7.62;0.00
76637;BME280;65532;52.124;5.480;2023-11-21T05:44:41;101343.50;;;7.64;0.00
76637;BME280;65532;52.124;5.480;2023-11-21T05:47:08;101345.78;;;7.67;0.00
76637;BME280;65532;52.124;5.480;2023-11-21T05:49:35;101345.59;;;7.68;0.00
76637;BME280;65532;52.124;5.480;2023-11-21T05:52:02;101352.63;;;7.69;0.00
76637;BME280;65532;52.124;5.480;2023-11-21T05:54:29;101343.53;;;7.70;0.06
76637;BME280;65532;52.124;5.480;2023-11-21T05:56:55;101344.34;;;7.71;0.00
76637;BME280;65532;52.124;5.480;2023-11-21T05:59:21;101350.56;;;7.71;0.00
76637;BME280;65532;52.124;5.480;2023-11-21T06:01:49;101358.47;;;7.73;0.51
76637;BME280;65532;52.124;5.480;2023-11-21T06:04:15;101358.28;;;7.74;1.11
76637;BME280;65532;52.124;5.480;2023-11-21T06:06:42;101364.72;;;7.73;0.76
76637;BME280;65532;52.124;5.480;2023-11-21T06:09:09;101368.03;;;7.75;0.40
76637;BME280;65532;52.124;5.480;2023-11-21T06:11:35;101377.56;;;7.78;0.18
76637;BME280;65532;52.124;5.480;2023-11-21T06:14:02;101375.72;;;7.78;0.32
76637;BME280;65532;52.124;5.480;2023-11-21T06:16:28;101380.91;;;7.80;0.80
76637;BME280;65532;52.124;5.480;2023-11-21T06:18:55;101386.28;;;7.80;0.81
76637;BME280;65532;52.124;5.480;2023-11-21T06:21:22;101378.84;;;7.82;0.61
76637;BME280;65532;52.124;5.480;2023-11-21T06:23:48;101386.72;;;7.84;0.42
76637;BME280;65532;52.124;5.480;2023-11-21T06:26:19;101383.00;;;7.85;0.00
76637;BME280;65532;52.124;5.480;2023-11-21T06:28:46;101393.56;;;7.86;0.06
76637;BME280;65532;52.124;5.480;2023-11-21T06:31:13;101390.50;;;7.89;0.00
76637;BME280;65532;52.124;5.480;2023-11-21T06:33:40;101395.88;;;7.89;0.00
76637;BME280;65532;52.124;5.480;2023-11-21T06:36:08;101393.81;;;7.91;0.00
76637;BME280;65532;52.124;5.480;2023-11-21T06:38:34;101397.16;;;7.93;0.00
76637;BME280;65532;52.124;5.480;2023-11-21T06:41:01;101400.66;;;7.94;0.00
76637;BME280;65532;52.124;5.480;2023-11-21T06:43:30;101397.56;;;7.97;0.00
76637;BME280;65532;52.124;5.480;2023-11-21T06:45:57;101400.88;;;7.99;0.00
76637;BME280;65532;52.124;5.480;2023-11-21T06:48:25;101408.78;;;8.00;0.00
76637;BME280;65532;52.124;5.480;2023-11-21T06:50:51;101411.91;;;8.04;0.00
76637;BME280;65532;52.124;5.480;2023-11-21T06:53:18;101410.69;;;8.06;0.00
76637;BME280;65532;52.124;5.480;2023-11-21T06:55:45;101411.31;;;8.08;0.00
76637;BME280;65532;52.124;5.480;2023-11-21T06:58:12;101412.97;;;8.09;0.00
76637;BME280;65532;52.124;5.480;2023-11-21T07:00:40;101417.13;;;8.12;0.00
76637;BME280;65532;52.124;5.480;2023-11-21T07:03:07;101423.16;;;8.14;0.00
76637;BME280;65532;52.124;5.480;2023-11-21T07:05:34;101428.34;;;8.16;0.00
76637;BME280;65532;52.124;5.480;2023-11-21T07:08:00;101430.84;;;8.17;0.00
76637;BME280;65532;52.124;5.480;2023-11-21T07:10:30;101440.38;;;8.20;0.00
76637;BME280;65532;52.124;5.480;2023-11-21T07:12:57;101444.78;;;8.21;0.00
76637;BME280;65532;52.124;5.480;2023-11-21T07:15:24;101453.50;;;8.23;0.00
76637;BME280;65532;52.124;5.480;2023-11-21T07:17:52;101447.06;;;8.24;0.00
76637;BME280;65532;52.124;5.480;2023-11-21T07:20:20;101450.41;;;8.26;0.00
76637;BME280;65532;52.124;5.480;2023-11-21T07:22:47;101454.75;;;8.27;0.00
76637;BME280;65532;52.124;5.480;2023-11-21T07:25:14;101455.38;;;8.29;0.00
76637;BME280;65532;52.124;5.480;2023-11-21T07:27:41;101459.53;;;8.31;0.00
76637;BME280;65532;52.124;5.480;2023-11-21T07:30:08;101460.00;;;8.35;0.00
76637;BME280;65532;52.124;5.480;2023-11-21T07:32:36;101467.72;;;8.38;0.00
76637;BME280;65532;52.124;5.480;2023-11-21T07:35:04;101478.09;;;8.41;0.00
76637;BME280;65532;52.124;5.480;2023-11-21T07:37:30;101465.44;;;8.42;0.00
76637;BME280;65532;52.124;5.480;2023-11-21T07:39:57;101465.22;;;8.43;0.00
76637;BME280;65532;52.124;5.480;2023-11-21T07:42:23;101468.56;;;8.45;0.00
76637;BME280;65532;52.124;5.480;2023-11-21T07:44:52;101469.19;;;8.47;0.00
76637;BME280;65532;52.124;5.480;2023-11-21T07:47:19;101471.47;;;8.50;0.00
76637;BME280;65532;52.124;5.480;2023-11-21T07:49:45;101472.13;;;8.52;0.00
76637;BME280;65532;52.124;5.480;2023-11-21T07:52:13;101484.19;;;8.56;0.00
76637;BME280;65532;52.124;5.480;2023-11-21T07:54:42;101488.13;;;8.60;0.00
76637;BME280;65532;52.124;5.480;2023-11-21T07:57:09;101487.09;;;8.61;0.00
76637;BME280;65532;52.124;5.480;2023-11-21T07:59:40;101502.03;;;8.64;0.00
76637;BME280;65532;52.124;5.480;2023-11-21T08:02:07;101500.44;;;8.69;0.00
76637;BME280;65532;52.124;5.480;2023-11-21T08:04:34;101506.25;;;8.73;0.00
76637;BME280;65532;52.124;5.480;2023-11-21T08:07:02;101515.38;;;8.79;0.00
76637;BME280;65532;52.124;5.480;2023-11-21T08:09:30;101519.34;;;8.83;0.00
76637;BME280;65532;52.124;5.480;2023-11-21T08:11:56;101526.03;;;8.87;0.00
76637;BME280;65532;52.124;5.480;2023-11-21T08:14:23;101535.38;;;8.91;0.00
76637;BME280;65532;52.124;5.480;2023-11-21T08:16:51;101534.53;;;8.97;0.00
76637;BME280;65532;52.124;5.480;2023-11-21T08:19:18;101533.75;;;9.03;0.00
76637;BME280;65532;52.124;5.480;2023-11-21T08:21:45;101541.44;;;9.06;0.00
76637;BME280;65532;52.124;5.480;2023-11-21T08:24:12;101543.94;;;9.08;0.00
76637;BME280;65532;52.124;5.480;2023-11-21T08:26:38;101552.47;;;9.11;0.00
76637;BME280;65532;52.124;5.480;2023-11-21T08:29:04;101563.69;;;9.15;0.00
76637;BME280;65532;52.124;5.480;2023-11-21T08:31:33;101554.75;;;9.14;0.00
76637;BME280;65532;52.124;5.480;2023-11-21T08:34:00;101563.50;;;9.16;0.00
76637;BME280;65532;52.124;5.480;2023-11-21T08:36:29;101570.38;;;9.19;0.00
76637;BME280;65532;52.124;5.480;2023-11-21T08:38:57;101582.84;;;9.20;0.00
76637;BME280;65532;52.124;5.480;2023-11-21T08:41:24;101575.78;;;9.19;0.00
76637;BME280;65532;52.124;5.480;2023-11-21T08:43:51;101591.97;;;9.19;0.00
76637;BME280;65532;52.124;5.480;2023-11-21T08:46:18;101591.78;;;9.20;0.00
76637;BME280;65532;52.124;5.480;2023-11-21T08:48:45;101592.41;;;9.22;0.00
76637;BME280;65532;52.124;5.480;2023-11-21T08:51:12;101595.09;;;9.22;0.00
76637;BME280;65532;52.124;5.480;2023-11-21T08:53:38;101597.78;;;9.22;0.00
76637;BME280;65532;52.124;5.480;2023-11-21T08:56:05;101606.31;;;9.26;0.00
76637;BME280;65532;52.124;5.480;2023-11-21T08:58:32;101612.16;;;9.29;0.00
76637;BME280;65532;52.124;5.480;2023-11-21T09:00:59;101611.53;;;9.27;0.00
76637;BME280;65532;52.124;5.480;2023-11-21T09:03:26;101612.56;;;9.26;0.00
76637;BME280;65532;52.124;5.480;2023-11-21T09:05:53;101610.28;;;9.30;0.00
76637;BME280;65532;52.124;5.480;2023-11-21T09:08:19;101611.09;;;9.30;0.00
76637;BME280;65532;52.124;5.480;2023-11-21T09:10:45;101612.41;;;9.41;0.00
76637;BME280;65532;52.124;5.480;2023-11-21T09:13:13;101626.56;;;9.50;0.00
76637;BME280;65532;52.124;5.480;2023-11-21T09:15:40;101630.94;;;9.57;0.00
76637;BME280;65532;52.124;5.480;2023-11-21T09:18:06;101641.56;;;9.66;0.00
76637;BME280;65532;52.124;5.480;2023-11-21T09:20:33;101645.53;;;9.63;0.00
76637;BME280;65532;52.124;5.480;2023-11-21T09:23:00;101642.78;;;9.56;0.00
76637;BME280;65532;52.124;5.480;2023-11-21T09:25:27;101640.28;;;9.55;0.00
76637;BME280;65532;52.124;5.480;2023-11-21T09:27:55;101646.72;;;9.54;0.00
76637;BME280;65532;52.124;5.480;2023-11-21T09:30:23;101645.69;;;9.55;0.00
76637;BME280;65532;52.124;5.480;2023-11-21T09:32:51;101653.59;;;9.56;0.00
76637;BME280;65532;52.124;5.480;2023-11-21T09:35:17;101663.16;;;9.59;0.00
76637;BME280;65532;52.124;5.480;2023-11-21T09:37:44;101664.41;;;9.56;0.00
76637;BME280;65532;52.124;5.480;2023-11-21T09:40:16;101670.44;;;9.52;0.00
76637;BME280;65532;52.124;5.480;2023-11-21T09:42:54;101680.00;;;9.54;0.00
76637;BME280;65532;52.124;5.480;2023-11-21T09:45:25;101688.53;;;9.51;0.00
76637;BME280;65532;52.124;5.480;2023-11-21T09:47:53;101691.44;;;9.50;0.00
76637;BME280;65532;52.124;5.480;2023-11-21T09:50:22;101697.63;;;9.44;0.00
76637;BME280;65532;52.124;5.480;2023-11-21T09:52:54;101693.69;;;9.46;0.00
76637;BME280;65532;52.124;5.480;2023-11-21T09:55:22;101699.75;;;9.48;0.00
76637;BME280;65532;52.124;5.480;2023-11-21T09:57:49;101702.00;;;9.45;0.00
76637;BME280;65532;52.124;5.480;2023-11-21T10:00:16;101698.09;;;9.47;0.00
76637;BME280;65532;52.124;5.480;2023-11-21T10:02:44;101701.63;;;9.48;0.00
76637;BME280;65532;52.124;5.480;2023-11-21T10:05:11;101703.50;;;9.47;0.00
76637;BME280;65532;52.124;5.480;2023-11-21T10:07:39;101706.81;;;9.49;0.00
76637;BME280;65532;52.124;5.480;2023-11-21T10:10:07;101714.09;;;9.49;0.00
76637;BME280;65532;52.124;5.480;2023-11-21T10:12:35;101720.91;;;9.45;0.00
76637;BME280;65532;52.124;5.480;2023-11-21T10:15:03;101721.97;;;9.44;0.00
76637;BME280;65532;52.124;5.480;2023-11-21T10:17:36;101730.47;;;9.41;0.00
76637;BME280;65532;52.124;5.480;2023-11-21T10:20:10;101731.31;;;9.41;0.00
76637;BME280;65532;52.124;5.480;2023-11-21T10:22:43;101738.16;;;9.37;0.00
76637;BME280;65532;52.124;5.480;2023-11-21T10:25:10;101739.63;;;9.40;0.00
76637;BME280;65532;52.124;5.480;2023-11-21T10:27:37;101750.44;;;9.40;1.42
76637;BME280;65532;52.124;5.480;2023-11-21T10:30:07;101745.91;;;9.47;0.39
76637;BME280;65532;52.124;5.480;2023-11-21T10:32:44;101750.50;;;9.53;0.18
76637;BME280;65532;52.124;5.480;2023-11-21T10:35:11;101742.81;;;9.56;1.80
76637;BME280;65532;52.124;5.480;2023-11-21T10:37:40;101751.34;;;9.60;1.53
76637;BME280;65532;52.124;5.480;2023-11-21T10:40:08;101761.53;;;9.58;5.09
76637;BME280;65532;52.124;5.480;2023-11-21T10:42:39;101767.34;;;9.55;10.94
76637;BME280;65532;52.124;5.480;2023-11-21T10:45:09;101768.38;;;9.54;15.88
76637;BME280;65532;52.124;5.480;2023-11-21T10:47:41;101782.53;;;9.56;22.92
76637;BME280;65532;52.124;5.480;2023-11-21T10:50:08;101789.53;;;9.44;32.39
76637;BME280;65532;52.124;5.480;2023-11-21T10:52:41;101792.00;;;9.39;38.25
76637;BME280;65532;52.124;5.480;2023-11-21T10:55:17;101798.84;;;9.35;41.17
76637;BME280;65532;52.124;5.480;2023-11-21T10:57:48;101809.03;;;9.33;42.46
76637;BME280;65532;52.124;5.480;2023-11-21T11:00:16;101799.44;;;9.30;45.14
76637;BME280;65532;52.124;5.480;2023-11-21T11:02:43;101814.38;;;9.26;48.79
76637;BME280;65532;52.124;5.480;2023-11-21T11:05:10;101810.22;;;9.23;51.83
76637;BME280;65532;52.124;5.480;2023-11-21T11:07:42;101814.78;;;9.23;53.13
76637;BME280;65532;52.124;5.480;2023-11-21T11:10:09;101808.53;;;9.22;53.79
76637;BME280;65532;52.124;5.480;2023-11-21T11:12:41;101820.38;;;9.21;54.00
76637;BME280;65532;52.124;5.480;2023-11-21T11:15:08;101811.00;;;9.17;55.46
76637;BME280;65532;52.124;5.480;2023-11-21T11:17:37;101809.38;;;9.23;53.11
76637;BME280;65532;52.124;5.480;2023-11-21T11:20:11;101817.69;;;9.21;52.12
76637;BME280;65532;52.124;5.480;2023-11-21T11:22:57;101811.88;;;9.24;49.99
76637;BME280;65532;52.124;5.480;2023-11-21T11:28:18;101813.31;;;9.20;49.06
76637;BME280;65532;52.124;5.480;2023-11-21T11:33:38;101827.25;;;9.24;48.21
76637;BME280;65532;52.124;5.480;2023-11-21T11:36:13;101827.47;;;9.22;49.00
76637;BME280;65532;52.124;5.480;2023-11-21T11:38:46;101827.25;;;9.24;49.56
76637;BME280;65532;52.124;5.480;2023-11-21T11:41:24;101822.25;;;9.21;52.51
76637;BME280;65532;52.124;5.480;2023-11-21T11:43:53;101828.31;;;9.29;51.77
76637;BME280;65532;52.124;5.480;2023-11-21T11:46:19;101831.91;;;9.37;51.33
76637;BME280;65532;52.124;5.480;2023-11-21T11:49:02;101833.81;;;9.43;52.15
76637;BME280;65532;52.124;5.480;2023-11-21T11:51:29;101829.88;;;9.45;53.81
76637;BME280;65532;52.124;5.480;2023-11-21T11:53:57;101849.63;;;9.46;58.91
76637;BME280;65532;52.124;5.480;2023-11-21T11:56:29;101855.63;;;9.41;62.42
76637;BME280;65532;52.124;5.480;2023-11-21T11:59:03;101846.09;;;9.45;62.76
76637;BME280;65532;52.124;5.480;2023-11-21T12:01:32;101845.06;;;9.46;63.85
76637;BME280;65532;52.124;5.480;2023-11-21T12:06:43;101854.16;;;9.39;72.04
76637;BME280;65532;52.124;5.480;2023-11-21T12:09:20;101863.94;;;9.40;72.42
76637;BME280;65532;52.124;5.480;2023-11-21T12:11:51;101862.28;;;9.39;74.41
76637;BME280;65532;52.124;5.480;2023-11-21T12:14:18;101869.78;;;9.43;74.45
76637;BME280;65532;52.124;5.480;2023-11-21T12:16:44;101868.53;;;9.46;75.17
76637;BME280;65532;52.124;5.480;2023-11-21T12:19:11;101875.81;;;9.45;76.54
76637;BME280;65532;52.124;5.480;2023-11-21T12:21:38;101876.41;;;9.41;79.24
76637;BME280;65532;52.124;5.480;2023-11-21T12:24:07;101885.78;;;9.45;78.31
76637;BME280;65532;52.124;5.480;2023-11-21T12:26:38;101881.06;;;9.47;78.15
76637;BME280;65532;52.124;5.480;2023-11-21T12:29:04;101891.47;;;9.50;77.51
76637;BME280;65532;52.124;5.480;2023-11-21T12:31:34;101887.63;;;9.38;80.69
76637;BME280;65532;52.124;5.480;2023-11-21T12:34:01;101898.56;;;9.29;80.82
76637;BME280;65532;52.124;5.480;2023-11-21T12:36:28;101889.19;;;9.25;80.00
76637;BME280;65532;52.124;5.480;2023-11-21T12:38:56;101884.22;;;9.29;78.49
76637;BME280;65532;52.124;5.480;2023-11-21T12:41:23;101882.19;;;9.31;76.23
76637;BME280;65532;52.124;5.480;2023-11-21T12:43:49;101879.94;;;9.35;74.83
76637;BME280;65532;52.124;5.480;2023-11-21T12:46:16;101893.44;;;9.35;74.51
76637;BME280;65532;52.124;5.480;2023-11-21T12:48:44;101884.72;;;9.39;73.65
76637;BME280;65532;52.124;5.480;2023-11-21T12:51:13;101892.25;;;9.44;73.96
76637;BME280;65532;52.124;5.480;2023-11-21T12:53:41;101898.69;;;9.43;75.64
76637;BME280;65532;52.124;5.480;2023-11-21T12:56:11;101902.22;;;9.43;79.74
76637;BME280;65532;52.124;5.480;2023-11-21T12:58:39;101899.56;;;9.50;81.93
76637;BME280;65532;52.124;5.480;2023-11-21T13:01:06;101902.72;;;9.53;84.01
76637;BME280;65532;52.124;5.480;2023-11-21T13:03:38;101909.38;;;9.57;87.03
76637;BME280;65532;52.124;5.480;2023-11-21T13:06:07;101908.94;;;9.54;90.26
76637;BME280;65532;52.124;5.480;2023-11-21T13:08:36;101911.84;;;9.52;92.84
76637;BME280;65532;52.124;5.480;2023-11-21T13:11:05;101922.28;;;9.55;93.27
76637;BME280;65532;52.124;5.480;2023-11-21T13:13:32;101920.19;;;9.57;93.87
76637;BME280;65532;52.124;5.480;2023-11-21T13:16:00;101922.06;;;9.57;93.68
76637;BME280;65532;52.124;5.480;2023-11-21T13:18:28;101926.63;;;9.56;94.85